Terminal Aerodrome Forecast
Issued by NWS

Home | Current Version | Previous Version | Text Only | Print | Product List | Glossary On
Versions: 1 2 3 4 5 6 7 8 9 10 11 12 13 14 15
000
FTAK31 PAJN 272335
TAFAJN
TAF
PAJN 272335Z 2800/2824 00000KT P6SM SKC
     FM280400 10008KT P6SM OVC080
     FM281000 09010KT P6SM VCSH OVC040
     FM281300 09010KT 6SM -SN OVC025
     FM281500 09010KT 2SM -SN BR OVC012
     FM281800 09007KT 1SM -SN BR OVC010=

USA.gov is the U.S. government's official web portal to all federal, state and local government web resources and services.